Moose Heights, Canada
Current Conditions -  °F | °C
As of 5:40 AM on Sunday 23 Nov 2014 (Local Time) from CYQZ Reporting Station
Light Snow Light Snow  
Wind Chill: 24°   Ceiling: 2000
Heat Index: 32°   Visibility: 2mi
Dew Point: 32°   Wind: 10mph
Humidity: 100%   Direction: 140°SE
Pressure: 29.73"   Gusts: NA
Location:  53.09°N, 122.49°W
Report Text: CYQZ 231340Z AUTO 14009KT 2SM -SN OVC020 00/M00 A2973 RMK SLP095
Loading
Personal Weather Stations






























Interactive Weather Map New forecast layout! Learn more

10-Day Weather Forecast

Advertisements
Track Severe Weather on mobile